sensor_id;sensor_type;location;lat;lon;timestamp;P1;durP1;ratioP1;P2;durP2;ratioP2
17345;SDS011;8790;53.590;10.002;2022-11-04T00:01:32;7.47;;;4.20;;
17345;SDS011;8790;53.590;10.002;2022-11-04T00:04:08;6.17;;;4.27;;
17345;SDS011;8790;53.590;10.002;2022-11-04T00:06:42;8.97;;;4.33;;
17345;SDS011;8790;53.590;10.002;2022-11-04T00:09:14;11.00;;;4.50;;
17345;SDS011;8790;53.590;10.002;2022-11-04T00:11:47;8.47;;;4.50;;
17345;SDS011;8790;53.590;10.002;2022-11-04T00:14:37;5.93;;;3.97;;
17345;SDS011;8790;53.590;10.002;2022-11-04T00:17:09;8.20;;;4.37;;
17345;SDS011;8790;53.590;10.002;2022-11-04T00:19:52;6.53;;;4.50;;
17345;SDS011;8790;53.590;10.002;2022-11-04T00:22:46;6.30;;;3.83;;
17345;SDS011;8790;53.590;10.002;2022-11-04T00:25:36;7.13;;;4.27;;
17345;SDS011;8790;53.590;10.002;2022-11-04T00:28:39;6.77;;;4.30;;
17345;SDS011;8790;53.590;10.002;2022-11-04T00:31:14;8.23;;;4.40;;
17345;SDS011;8790;53.590;10.002;2022-11-04T00:34:03;7.50;;;4.60;;
17345;SDS011;8790;53.590;10.002;2022-11-04T00:36:35;8.93;;;4.40;;
17345;SDS011;8790;53.590;10.002;2022-11-04T00:39:08;9.20;;;4.60;;
17345;SDS011;8790;53.590;10.002;2022-11-04T00:41:40;6.13;;;4.23;;
17345;SDS011;8790;53.590;10.002;2022-11-04T00:44:11;8.93;;;4.47;;
17345;SDS011;8790;53.590;10.002;2022-11-04T00:46:43;7.20;;;4.30;;
17345;SDS011;8790;53.590;10.002;2022-11-04T00:49:15;9.10;;;4.80;;
17345;SDS011;8790;53.590;10.002;2022-11-04T00:51:47;9.53;;;5.77;;
17345;SDS011;8790;53.590;10.002;2022-11-04T00:54:20;6.77;;;4.40;;
17345;SDS011;8790;53.590;10.002;2022-11-04T00:56:52;8.43;;;4.40;;
17345;SDS011;8790;53.590;10.002;2022-11-04T00:59:24;8.00;;;4.60;;
17345;SDS011;8790;53.590;10.002;2022-11-04T01:01:56;9.40;;;4.53;;
17345;SDS011;8790;53.590;10.002;2022-11-04T01:04:28;6.90;;;4.23;;
17345;SDS011;8790;53.590;10.002;2022-11-04T01:07:00;5.33;;;4.27;;
17345;SDS011;8790;53.590;10.002;2022-11-04T01:09:34;7.17;;;4.40;;
17345;SDS011;8790;53.590;10.002;2022-11-04T01:12:05;7.30;;;4.50;;
17345;SDS011;8790;53.590;10.002;2022-11-04T01:14:37;6.40;;;4.67;;
17345;SDS011;8790;53.590;10.002;2022-11-04T01:17:09;6.23;;;4.73;;
17345;SDS011;8790;53.590;10.002;2022-11-04T01:22:40;7.37;;;4.57;;
17345;SDS011;8790;53.590;10.002;2022-11-04T01:25:13;7.10;;;4.50;;
17345;SDS011;8790;53.590;10.002;2022-11-04T01:27:45;7.80;;;4.70;;
17345;SDS011;8790;53.590;10.002;2022-11-04T01:30:16;7.57;;;4.90;;
17345;SDS011;8790;53.590;10.002;2022-11-04T01:32:48;6.23;;;4.60;;
17345;SDS011;8790;53.590;10.002;2022-11-04T01:35:20;8.53;;;5.13;;
17345;SDS011;8790;53.590;10.002;2022-11-04T01:37:52;5.20;;;4.27;;
17345;SDS011;8790;53.590;10.002;2022-11-04T01:40:25;8.43;;;4.30;;
17345;SDS011;8790;53.590;10.002;2022-11-04T01:42:57;7.23;;;4.67;;
17345;SDS011;8790;53.590;10.002;2022-11-04T01:45:29;7.20;;;4.17;;
17345;SDS011;8790;53.590;10.002;2022-11-04T01:48:02;8.47;;;4.57;;
17345;SDS011;8790;53.590;10.002;2022-11-04T01:50:35;6.47;;;4.67;;
17345;SDS011;8790;53.590;10.002;2022-11-04T01:53:08;7.60;;;4.67;;
17345;SDS011;8790;53.590;10.002;2022-11-04T01:55:47;8.73;;;4.40;;
17345;SDS011;8790;53.590;10.002;2022-11-04T01:58:23;6.90;;;4.53;;
17345;SDS011;8790;53.590;10.002;2022-11-04T02:00:58;5.67;;;4.40;;
17345;SDS011;8790;53.590;10.002;2022-11-04T02:03:32;8.07;;;4.50;;
17345;SDS011;8790;53.590;10.002;2022-11-04T02:06:06;7.60;;;4.67;;
17345;SDS011;8790;53.590;10.002;2022-11-04T02:08:39;7.83;;;5.00;;
17345;SDS011;8790;53.590;10.002;2022-11-04T02:11:14;8.93;;;4.50;;
17345;SDS011;8790;53.590;10.002;2022-11-04T02:14:00;9.93;;;4.63;;
17345;SDS011;8790;53.590;10.002;2022-11-04T02:16:33;7.10;;;4.60;;
17345;SDS011;8790;53.590;10.002;2022-11-04T02:19:15;6.87;;;4.70;;
17345;SDS011;8790;53.590;10.002;2022-11-04T02:22:08;6.33;;;4.23;;
17345;SDS011;8790;53.590;10.002;2022-11-04T02:25:02;7.43;;;4.80;;
17345;SDS011;8790;53.590;10.002;2022-11-04T02:27:50;6.43;;;4.43;;
17345;SDS011;8790;53.590;10.002;2022-11-04T02:30:38;7.37;;;4.60;;
17345;SDS011;8790;53.590;10.002;2022-11-04T02:33:18;8.07;;;5.27;;
17345;SDS011;8790;53.590;10.002;2022-11-04T02:35:54;8.17;;;4.80;;
17345;SDS011;8790;53.590;10.002;2022-11-04T02:38:34;5.80;;;4.43;;
17345;SDS011;8790;53.590;10.002;2022-11-04T02:41:12;6.63;;;4.93;;
17345;SDS011;8790;53.590;10.002;2022-11-04T02:43:51;5.50;;;4.53;;
17345;SDS011;8790;53.590;10.002;2022-11-04T02:46:33;8.87;;;5.23;;
17345;SDS011;8790;53.590;10.002;2022-11-04T02:49:09;7.40;;;4.50;;
17345;SDS011;8790;53.590;10.002;2022-11-04T02:51:43;8.93;;;5.03;;
17345;SDS011;8790;53.590;10.002;2022-11-04T02:54:20;7.20;;;5.03;;
17345;SDS011;8790;53.590;10.002;2022-11-04T02:56:55;7.00;;;4.73;;
17345;SDS011;8790;53.590;10.002;2022-11-04T02:59:32;8.47;;;4.73;;
17345;SDS011;8790;53.590;10.002;2022-11-04T03:02:08;7.43;;;4.80;;
17345;SDS011;8790;53.590;10.002;2022-11-04T03:04:44;6.40;;;4.57;;
17345;SDS011;8790;53.590;10.002;2022-11-04T03:07:20;5.70;;;4.60;;
17345;SDS011;8790;53.590;10.002;2022-11-04T03:09:57;7.03;;;4.40;;
17345;SDS011;8790;53.590;10.002;2022-11-04T03:12:34;6.13;;;4.17;;
17345;SDS011;8790;53.590;10.002;2022-11-04T03:15:12;5.30;;;4.50;;
17345;SDS011;8790;53.590;10.002;2022-11-04T03:17:52;6.57;;;4.57;;
17345;SDS011;8790;53.590;10.002;2022-11-04T03:20:30;6.60;;;4.50;;
17345;SDS011;8790;53.590;10.002;2022-11-04T03:23:02;6.60;;;4.20;;
17345;SDS011;8790;53.590;10.002;2022-11-04T03:25:35;7.00;;;4.07;;
17345;SDS011;8790;53.590;10.002;2022-11-04T03:28:11;7.17;;;4.33;;
17345;SDS011;8790;53.590;10.002;2022-11-04T03:30:53;8.07;;;4.63;;
17345;SDS011;8790;53.590;10.002;2022-11-04T03:33:32;7.57;;;4.60;;
17345;SDS011;8790;53.590;10.002;2022-11-04T03:36:09;7.57;;;4.40;;
17345;SDS011;8790;53.590;10.002;2022-11-04T03:38:40;5.67;;;4.47;;
17345;SDS011;8790;53.590;10.002;2022-11-04T03:41:13;5.17;;;4.47;;
17345;SDS011;8790;53.590;10.002;2022-11-04T03:43:48;7.70;;;4.60;;
17345;SDS011;8790;53.590;10.002;2022-11-04T03:46:20;6.87;;;4.40;;
17345;SDS011;8790;53.590;10.002;2022-11-04T03:48:53;6.20;;;4.20;;
17345;SDS011;8790;53.590;10.002;2022-11-04T03:51:26;7.13;;;4.90;;
17345;SDS011;8790;53.590;10.002;2022-11-04T03:53:58;6.67;;;4.50;;
17345;SDS011;8790;53.590;10.002;2022-11-04T03:56:45;5.60;;;4.40;;
17345;SDS011;8790;53.590;10.002;2022-11-04T03:59:35;6.40;;;4.97;;
17345;SDS011;8790;53.590;10.002;2022-11-04T04:02:26;6.90;;;4.50;;
17345;SDS011;8790;53.590;10.002;2022-11-04T04:05:10;8.10;;;4.60;;
17345;SDS011;8790;53.590;10.002;2022-11-04T04:07:47;7.30;;;4.70;;
17345;SDS011;8790;53.590;10.002;2022-11-04T04:10:25;6.07;;;4.70;;
17345;SDS011;8790;53.590;10.002;2022-11-04T04:13:13;6.27;;;4.90;;
17345;SDS011;8790;53.590;10.002;2022-11-04T04:15:52;6.47;;;5.07;;
17345;SDS011;8790;53.590;10.002;2022-11-04T04:18:29;6.43;;;5.03;;
17345;SDS011;8790;53.590;10.002;2022-11-04T04:21:08;6.40;;;4.87;;
17345;SDS011;8790;53.590;10.002;2022-11-04T04:23:45;6.40;;;5.13;;
17345;SDS011;8790;53.590;10.002;2022-11-04T04:26:37;6.90;;;5.27;;
17345;SDS011;8790;53.590;10.002;2022-11-04T04:29:28;5.60;;;4.73;;
17345;SDS011;8790;53.590;10.002;2022-11-04T04:32:00;6.77;;;4.97;;
17345;SDS011;8790;53.590;10.002;2022-11-04T04:34:34;6.57;;;4.30;;
17345;SDS011;8790;53.590;10.002;2022-11-04T04:37:08;7.63;;;4.20;;
17345;SDS011;8790;53.590;10.002;2022-11-04T04:39:46;6.03;;;4.60;;
17345;SDS011;8790;53.590;10.002;2022-11-04T04:42:38;6.47;;;3.93;;
17345;SDS011;8790;53.590;10.002;2022-11-04T04:45:29;5.00;;;3.30;;
17345;SDS011;8790;53.590;10.002;2022-11-04T04:48:03;5.77;;;3.87;;
17345;SDS011;8790;53.590;10.002;2022-11-04T04:50:39;4.33;;;3.40;;
17345;SDS011;8790;53.590;10.002;2022-11-04T04:53:15;4.00;;;3.50;;
17345;SDS011;8790;53.590;10.002;2022-11-04T04:55:47;4.10;;;2.77;;
17345;SDS011;8790;53.590;10.002;2022-11-04T04:58:18;3.03;;;2.50;;
17345;SDS011;8790;53.590;10.002;2022-11-04T05:00:50;3.10;;;2.53;;
17345;SDS011;8790;53.590;10.002;2022-11-04T05:03:23;4.23;;;2.10;;
17345;SDS011;8790;53.590;10.002;2022-11-04T05:05:54;3.20;;;2.20;;
17345;SDS011;8790;53.590;10.002;2022-11-04T05:08:30;2.67;;;2.03;;
17345;SDS011;8790;53.590;10.002;2022-11-04T05:11:04;2.80;;;2.07;;
17345;SDS011;8790;53.590;10.002;2022-11-04T05:13:36;2.53;;;2.33;;
17345;SDS011;8790;53.590;10.002;2022-11-04T05:16:08;2.90;;;2.20;;
17345;SDS011;8790;53.590;10.002;2022-11-04T05:18:41;3.00;;;2.10;;
17345;SDS011;8790;53.590;10.002;2022-11-04T05:21:13;2.40;;;2.20;;
17345;SDS011;8790;53.590;10.002;2022-11-04T05:23:47;2.60;;;2.00;;
17345;SDS011;8790;53.590;10.002;2022-11-04T05:26:19;2.33;;;2.13;;
17345;SDS011;8790;53.590;10.002;2022-11-04T05:28:50;2.47;;;1.83;;
17345;SDS011;8790;53.590;10.002;2022-11-04T05:31:22;2.40;;;2.20;;
17345;SDS011;8790;53.590;10.002;2022-11-04T05:33:54;3.00;;;1.90;;
17345;SDS011;8790;53.590;10.002;2022-11-04T05:36:27;2.80;;;1.93;;
17345;SDS011;8790;53.590;10.002;2022-11-04T05:39:00;4.00;;;2.10;;
17345;SDS011;8790;53.590;10.002;2022-11-04T05:41:32;3.50;;;2.43;;
17345;SDS011;8790;53.590;10.002;2022-11-04T05:44:04;2.67;;;2.10;;
17345;SDS011;8790;53.590;10.002;2022-11-04T05:46:38;3.00;;;2.20;;
17345;SDS011;8790;53.590;10.002;2022-11-04T05:49:10;2.93;;;2.10;;
17345;SDS011;8790;53.590;10.002;2022-11-04T05:51:42;2.40;;;2.17;;
17345;SDS011;8790;53.590;10.002;2022-11-04T05:54:15;3.20;;;2.23;;
17345;SDS011;8790;53.590;10.002;2022-11-04T05:56:46;2.70;;;2.37;;
17345;SDS011;8790;53.590;10.002;2022-11-04T05:59:18;3.07;;;2.50;;
17345;SDS011;8790;53.590;10.002;2022-11-04T06:01:50;2.63;;;2.23;;
17345;SDS011;8790;53.590;10.002;2022-11-04T06:04:21;2.97;;;2.57;;
17345;SDS011;8790;53.590;10.002;2022-11-04T06:06:53;3.00;;;2.70;;
17345;SDS011;8790;53.590;10.002;2022-11-04T06:09:26;3.00;;;2.70;;
17345;SDS011;8790;53.590;10.002;2022-11-04T06:12:09;2.50;;;2.30;;
17345;SDS011;8790;53.590;10.002;2022-11-04T06:14:44;3.30;;;2.83;;
17345;SDS011;8790;53.590;10.002;2022-11-04T06:17:16;3.10;;;2.80;;
17345;SDS011;8790;53.590;10.002;2022-11-04T06:19:49;3.07;;;2.77;;
17345;SDS011;8790;53.590;10.002;2022-11-04T06:22:21;3.43;;;2.53;;
17345;SDS011;8790;53.590;10.002;2022-11-04T06:24:54;3.10;;;2.80;;
17345;SDS011;8790;53.590;10.002;2022-11-04T06:27:25;5.10;;;3.00;;
17345;SDS011;8790;53.590;10.002;2022-11-04T06:29:57;5.27;;;2.73;;
17345;SDS011;8790;53.590;10.002;2022-11-04T06:32:29;4.10;;;3.37;;
17345;SDS011;8790;53.590;10.002;2022-11-04T06:35:00;3.60;;;2.93;;
17345;SDS011;8790;53.590;10.002;2022-11-04T06:37:32;3.23;;;2.93;;
17345;SDS011;8790;53.590;10.002;2022-11-04T06:40:06;3.53;;;3.23;;
17345;SDS011;8790;53.590;10.002;2022-11-04T06:42:38;3.80;;;3.40;;
17345;SDS011;8790;53.590;10.002;2022-11-04T06:45:11;4.70;;;3.63;;
17345;SDS011;8790;53.590;10.002;2022-11-04T06:47:43;4.60;;;3.43;;
17345;SDS011;8790;53.590;10.002;2022-11-04T06:50:15;4.40;;;3.50;;
17345;SDS011;8790;53.590;10.002;2022-11-04T06:52:47;4.30;;;3.50;;
17345;SDS011;8790;53.590;10.002;2022-11-04T06:55:20;6.50;;;3.80;;
17345;SDS011;8790;53.590;10.002;2022-11-04T06:57:51;6.67;;;4.07;;
17345;SDS011;8790;53.590;10.002;2022-11-04T07:00:23;4.33;;;3.60;;
17345;SDS011;8790;53.590;10.002;2022-11-04T07:02:55;4.87;;;3.60;;
17345;SDS011;8790;53.590;10.002;2022-11-04T07:05:27;7.17;;;4.13;;
17345;SDS011;8790;53.590;10.002;2022-11-04T07:07:59;5.10;;;4.13;;
17345;SDS011;8790;53.590;10.002;2022-11-04T07:10:32;4.87;;;3.90;;
17345;SDS011;8790;53.590;10.002;2022-11-04T07:13:04;5.13;;;3.97;;
17345;SDS011;8790;53.590;10.002;2022-11-04T07:15:36;6.23;;;5.13;;
17345;SDS011;8790;53.590;10.002;2022-11-04T07:18:09;6.13;;;4.90;;
17345;SDS011;8790;53.590;10.002;2022-11-04T07:20:41;5.10;;;4.60;;
17345;SDS011;8790;53.590;10.002;2022-11-04T07:23:13;5.03;;;4.47;;
17345;SDS011;8790;53.590;10.002;2022-11-04T07:25:46;6.53;;;4.30;;
17345;SDS011;8790;53.590;10.002;2022-11-04T07:28:18;6.53;;;4.43;;
17345;SDS011;8790;53.590;10.002;2022-11-04T07:30:50;6.27;;;4.80;;
17345;SDS011;8790;53.590;10.002;2022-11-04T07:33:21;5.80;;;4.77;;
17345;SDS011;8790;53.590;10.002;2022-11-04T07:35:54;6.63;;;4.93;;
17345;SDS011;8790;53.590;10.002;2022-11-04T07:38:25;6.47;;;4.87;;
17345;SDS011;8790;53.590;10.002;2022-11-04T07:40:58;5.37;;;4.37;;
17345;SDS011;8790;53.590;10.002;2022-11-04T07:43:31;6.70;;;4.73;;
17345;SDS011;8790;53.590;10.002;2022-11-04T07:46:03;5.17;;;4.33;;
17345;SDS011;8790;53.590;10.002;2022-11-04T07:48:36;5.67;;;5.07;;
17345;SDS011;8790;53.590;10.002;2022-11-04T07:51:10;6.70;;;4.70;;
17345;SDS011;8790;53.590;10.002;2022-11-04T07:53:43;5.40;;;4.83;;
17345;SDS011;8790;53.590;10.002;2022-11-04T07:56:17;7.33;;;5.10;;
17345;SDS011;8790;53.590;10.002;2022-11-04T07:58:49;5.33;;;4.83;;
17345;SDS011;8790;53.590;10.002;2022-11-04T08:01:22;6.77;;;5.17;;
17345;SDS011;8790;53.590;10.002;2022-11-04T08:03:54;6.43;;;5.23;;
17345;SDS011;8790;53.590;10.002;2022-11-04T08:06:26;6.40;;;4.93;;
17345;SDS011;8790;53.590;10.002;2022-11-04T08:08:58;6.37;;;5.63;;
17345;SDS011;8790;53.590;10.002;2022-11-04T08:11:31;6.30;;;5.67;;
17345;SDS011;8790;53.590;10.002;2022-11-04T08:14:02;6.73;;;6.00;;
17345;SDS011;8790;53.590;10.002;2022-11-04T08:16:34;6.43;;;5.80;;
17345;SDS011;8790;53.590;10.002;2022-11-04T08:19:06;6.37;;;5.47;;
17345;SDS011;8790;53.590;10.002;2022-11-04T08:21:38;7.90;;;5.27;;
17345;SDS011;8790;53.590;10.002;2022-11-04T08:24:10;6.47;;;5.27;;
17345;SDS011;8790;53.590;10.002;2022-11-04T08:26:43;6.70;;;5.27;;
17345;SDS011;8790;53.590;10.002;2022-11-04T08:29:15;8.50;;;5.40;;
17345;SDS011;8790;53.590;10.002;2022-11-04T08:31:47;6.27;;;5.23;;
17345;SDS011;8790;53.590;10.002;2022-11-04T08:34:18;6.23;;;5.30;;
17345;SDS011;8790;53.590;10.002;2022-11-04T08:36:50;6.83;;;5.00;;
17345;SDS011;8790;53.590;10.002;2022-11-04T08:39:22;6.80;;;5.60;;
17345;SDS011;8790;53.590;10.002;2022-11-04T08:41:55;6.33;;;5.50;;
17345;SDS011;8790;53.590;10.002;2022-11-04T08:44:27;6.27;;;4.80;;
17345;SDS011;8790;53.590;10.002;2022-11-04T08:46:59;6.80;;;5.60;;
17345;SDS011;8790;53.590;10.002;2022-11-04T08:49:36;7.63;;;6.00;;
17345;SDS011;8790;53.590;10.002;2022-11-04T08:52:08;5.50;;;4.97;;
17345;SDS011;8790;53.590;10.002;2022-11-04T08:54:39;6.23;;;5.03;;
17345;SDS011;8790;53.590;10.002;2022-11-04T08:57:14;7.90;;;4.90;;
17345;SDS011;8790;53.590;10.002;2022-11-04T08:59:51;5.63;;;5.13;;
17345;SDS011;8790;53.590;10.002;2022-11-04T09:02:22;8.00;;;5.40;;
17345;SDS011;8790;53.590;10.002;2022-11-04T09:04:54;5.60;;;5.00;;
17345;SDS011;8790;53.590;10.002;2022-11-04T09:07:26;5.30;;;4.80;;
17345;SDS011;8790;53.590;10.002;2022-11-04T09:09:57;6.87;;;4.80;;
17345;SDS011;8790;53.590;10.002;2022-11-04T09:15:05;6.33;;;5.07;;
17345;SDS011;8790;53.590;10.002;2022-11-04T09:17:38;5.23;;;4.73;;
17345;SDS011;8790;53.590;10.002;2022-11-04T09:20:10;5.47;;;4.77;;
17345;SDS011;8790;53.590;10.002;2022-11-04T09:22:42;7.43;;;5.27;;
17345;SDS011;8790;53.590;10.002;2022-11-04T09:25:13;5.73;;;5.07;;
17345;SDS011;8790;53.590;10.002;2022-11-04T09:27:46;5.60;;;4.90;;
17345;SDS011;8790;53.590;10.002;2022-11-04T09:30:18;6.20;;;4.47;;
17345;SDS011;8790;53.590;10.002;2022-11-04T09:32:50;5.40;;;4.43;;
17345;SDS011;8790;53.590;10.002;2022-11-04T09:35:22;7.03;;;4.77;;
17345;SDS011;8790;53.590;10.002;2022-11-04T09:37:54;5.00;;;4.10;;
17345;SDS011;8790;53.590;10.002;2022-11-04T09:40:26;5.37;;;4.00;;
17345;SDS011;8790;53.590;10.002;2022-11-04T09:43:03;5.10;;;4.17;;
17345;SDS011;8790;53.590;10.002;2022-11-04T09:45:44;4.63;;;3.57;;
17345;SDS011;8790;53.590;10.002;2022-11-04T09:48:18;3.07;;;2.77;;
17345;SDS011;8790;53.590;10.002;2022-11-04T09:50:55;4.17;;;3.17;;
17345;SDS011;8790;53.590;10.002;2022-11-04T09:53:32;5.60;;;3.90;;
17345;SDS011;8790;53.590;10.002;2022-11-04T09:56:12;5.30;;;3.40;;
17345;SDS011;8790;53.590;10.002;2022-11-04T09:58:49;3.70;;;3.40;;
17345;SDS011;8790;53.590;10.002;2022-11-04T10:01:22;3.90;;;3.47;;
17345;SDS011;8790;53.590;10.002;2022-11-04T10:04:05;5.03;;;3.93;;
17345;SDS011;8790;53.590;10.002;2022-11-04T10:06:48;4.50;;;3.77;;
17345;SDS011;8790;53.590;10.002;2022-11-04T10:09:37;4.40;;;3.53;;
17345;SDS011;8790;53.590;10.002;2022-11-04T10:12:24;4.87;;;3.90;;
17345;SDS011;8790;53.590;10.002;2022-11-04T10:15:14;4.47;;;3.80;;
17345;SDS011;8790;53.590;10.002;2022-11-04T10:18:06;4.80;;;3.70;;
17345;SDS011;8790;53.590;10.002;2022-11-04T10:20:48;3.80;;;3.27;;
17345;SDS011;8790;53.590;10.002;2022-11-04T10:23:31;5.83;;;3.80;;
17345;SDS011;8790;53.590;10.002;2022-11-04T10:26:16;4.17;;;3.50;;
17345;SDS011;8790;53.590;10.002;2022-11-04T10:28:51;5.00;;;3.53;;
17345;SDS011;8790;53.590;10.002;2022-11-04T10:31:27;3.70;;;3.30;;
17345;SDS011;8790;53.590;10.002;2022-11-04T10:33:59;3.60;;;3.13;;
17345;SDS011;8790;53.590;10.002;2022-11-04T10:36:36;4.13;;;3.73;;
17345;SDS011;8790;53.590;10.002;2022-11-04T10:39:12;3.57;;;3.23;;
17345;SDS011;8790;53.590;10.002;2022-11-04T10:41:49;3.83;;;3.30;;
17345;SDS011;8790;53.590;10.002;2022-11-04T10:44:21;3.67;;;2.90;;
17345;SDS011;8790;53.590;10.002;2022-11-04T10:47:00;4.03;;;3.33;;
17345;SDS011;8790;53.590;10.002;2022-11-04T10:49:44;2.67;;;2.47;;
17345;SDS011;8790;53.590;10.002;2022-11-04T10:52:33;2.90;;;2.60;;
17345;SDS011;8790;53.590;10.002;2022-11-04T10:55:10;2.43;;;2.20;;
17345;SDS011;8790;53.590;10.002;2022-11-04T10:57:45;3.10;;;2.40;;
17345;SDS011;8790;53.590;10.002;2022-11-04T11:00:33;4.23;;;2.50;;
17345;SDS011;8790;53.590;10.002;2022-11-04T11:03:25;2.97;;;2.13;;
17345;SDS011;8790;53.590;10.002;2022-11-04T11:06:09;2.33;;;2.10;;
17345;SDS011;8790;53.590;10.002;2022-11-04T11:08:49;3.17;;;2.27;;
17345;SDS011;8790;53.590;10.002;2022-11-04T11:11:35;2.93;;;1.93;;
17345;SDS011;8790;53.590;10.002;2022-11-04T11:14:14;3.30;;;1.87;;
17345;SDS011;8790;53.590;10.002;2022-11-04T11:16:47;4.37;;;2.30;;
17345;SDS011;8790;53.590;10.002;2022-11-04T11:19:21;3.00;;;2.03;;
17345;SDS011;8790;53.590;10.002;2022-11-04T11:21:54;3.30;;;2.10;;
17345;SDS011;8790;53.590;10.002;2022-11-04T11:24:27;2.50;;;2.10;;
17345;SDS011;8790;53.590;10.002;2022-11-04T11:27:00;2.90;;;2.07;;
17345;SDS011;8790;53.590;10.002;2022-11-04T11:29:41;2.60;;;1.90;;
17345;SDS011;8790;53.590;10.002;2022-11-04T11:32:17;3.10;;;1.80;;
17345;SDS011;8790;53.590;10.002;2022-11-04T11:34:58;4.63;;;1.87;;
17345;SDS011;8790;53.590;10.002;2022-11-04T11:37:31;2.13;;;1.60;;
17345;SDS011;8790;53.590;10.002;2022-11-04T11:40:03;2.37;;;1.47;;
17345;SDS011;8790;53.590;10.002;2022-11-04T11:42:35;5.70;;;3.47;;
17345;SDS011;8790;53.590;10.002;2022-11-04T11:45:14;2.73;;;1.40;;
17345;SDS011;8790;53.590;10.002;2022-11-04T11:47:46;3.77;;;1.50;;
17345;SDS011;8790;53.590;10.002;2022-11-04T11:50:26;2.33;;;1.10;;
17345;SDS011;8790;53.590;10.002;2022-11-04T11:53:11;2.37;;;1.20;;
17345;SDS011;8790;53.590;10.002;2022-11-04T11:55:48;3.10;;;1.00;;
17345;SDS011;8790;53.590;10.002;2022-11-04T11:58:27;1.63;;;0.90;;
17345;SDS011;8790;53.590;10.002;2022-11-04T12:01:03;2.43;;;1.00;;
17345;SDS011;8790;53.590;10.002;2022-11-04T12:03:41;3.47;;;1.30;;
17345;SDS011;8790;53.590;10.002;2022-11-04T12:06:21;2.53;;;0.90;;
17345;SDS011;8790;53.590;10.002;2022-11-04T12:09:05;5.57;;;1.97;;
17345;SDS011;8790;53.590;10.002;2022-11-04T12:11:55;5.00;;;2.47;;
17345;SDS011;8790;53.590;10.002;2022-11-04T12:14:38;1.77;;;1.00;;
17345;SDS011;8790;53.590;10.002;2022-11-04T12:17:22;4.30;;;1.73;;
17345;SDS011;8790;53.590;10.002;2022-11-04T12:20:09;2.60;;;1.70;;
17345;SDS011;8790;53.590;10.002;2022-11-04T12:22:56;4.30;;;0.97;;
17345;SDS011;8790;53.590;10.002;2022-11-04T12:25:33;2.37;;;0.80;;
17345;SDS011;8790;53.590;10.002;2022-11-04T12:28:18;1.53;;;0.77;;
17345;SDS011;8790;53.590;10.002;2022-11-04T12:30:58;3.70;;;0.90;;
17345;SDS011;8790;53.590;10.002;2022-11-04T12:33:41;2.93;;;0.80;;
17345;SDS011;8790;53.590;10.002;2022-11-04T12:36:24;1.83;;;0.70;;
17345;SDS011;8790;53.590;10.002;2022-11-04T12:39:10;4.33;;;1.00;;
17345;SDS011;8790;53.590;10.002;2022-11-04T12:41:54;2.70;;;0.73;;
17345;SDS011;8790;53.590;10.002;2022-11-04T12:44:43;3.13;;;0.90;;
17345;SDS011;8790;53.590;10.002;2022-11-04T12:47:26;3.53;;;0.90;;
17345;SDS011;8790;53.590;10.002;2022-11-04T12:50:21;3.13;;;0.77;;
17345;SDS011;8790;53.590;10.002;2022-11-04T12:53:05;3.10;;;1.20;;
17345;SDS011;8790;53.590;10.002;2022-11-04T12:55:51;7.63;;;2.83;;
17345;SDS011;8790;53.590;10.002;2022-11-04T12:58:38;4.57;;;1.27;;
17345;SDS011;8790;53.590;10.002;2022-11-04T13:01:17;3.60;;;0.80;;
17345;SDS011;8790;53.590;10.002;2022-11-04T13:03:54;3.50;;;1.10;;
17345;SDS011;8790;53.590;10.002;2022-11-04T13:06:30;2.63;;;0.83;;
17345;SDS011;8790;53.590;10.002;2022-11-04T13:09:08;5.80;;;1.10;;
17345;SDS011;8790;53.590;10.002;2022-11-04T13:11:48;3.67;;;1.10;;
17345;SDS011;8790;53.590;10.002;2022-11-04T13:14:25;3.97;;;0.93;;
17345;SDS011;8790;53.590;10.002;2022-11-04T13:17:00;4.03;;;1.00;;
17345;SDS011;8790;53.590;10.002;2022-11-04T13:19:38;2.70;;;0.80;;
17345;SDS011;8790;53.590;10.002;2022-11-04T13:22:14;5.57;;;0.90;;
17345;SDS011;8790;53.590;10.002;2022-11-04T13:24:49;3.00;;;0.87;;
17345;SDS011;8790;53.590;10.002;2022-11-04T13:27:29;3.70;;;0.70;;
17345;SDS011;8790;53.590;10.002;2022-11-04T13:30:06;3.50;;;0.87;;
17345;SDS011;8790;53.590;10.002;2022-11-04T13:32:52;3.13;;;0.80;;
17345;SDS011;8790;53.590;10.002;2022-11-04T13:35:29;2.30;;;0.90;;
17345;SDS011;8790;53.590;10.002;2022-11-04T13:38:10;1.27;;;0.70;;
17345;SDS011;8790;53.590;10.002;2022-11-04T13:40:48;2.43;;;0.87;;
17345;SDS011;8790;53.590;10.002;2022-11-04T13:43:31;4.30;;;1.10;;
17345;SDS011;8790;53.590;10.002;2022-11-04T13:46:17;5.50;;;2.30;;
17345;SDS011;8790;53.590;10.002;2022-11-04T13:48:58;4.73;;;1.63;;
17345;SDS011;8790;53.590;10.002;2022-11-04T13:51:33;3.23;;;1.30;;
17345;SDS011;8790;53.590;10.002;2022-11-04T13:54:13;3.50;;;1.00;;
17345;SDS011;8790;53.590;10.002;2022-11-04T13:57:03;4.50;;;1.40;;
17345;SDS011;8790;53.590;10.002;2022-11-04T13:59:38;3.07;;;0.70;;
17345;SDS011;8790;53.590;10.002;2022-11-04T14:02:21;2.37;;;0.90;;
17345;SDS011;8790;53.590;10.002;2022-11-04T14:04:55;3.23;;;0.80;;
17345;SDS011;8790;53.590;10.002;2022-11-04T14:10:36;3.20;;;0.73;;
17345;SDS011;8790;53.590;10.002;2022-11-04T14:16:37;2.53;;;0.80;;
17345;SDS011;8790;53.590;10.002;2022-11-04T14:22:29;4.60;;;0.87;;
17345;SDS011;8790;53.590;10.002;2022-11-04T14:25:17;5.17;;;1.10;;
17345;SDS011;8790;53.590;10.002;2022-11-04T14:27:55;1.57;;;0.77;;
17345;SDS011;8790;53.590;10.002;2022-11-04T14:30:30;2.90;;;1.07;;
17345;SDS011;8790;53.590;10.002;2022-11-04T14:36:28;4.37;;;1.00;;
17345;SDS011;8790;53.590;10.002;2022-11-04T14:39:06;4.03;;;1.00;;
17345;SDS011;8790;53.590;10.002;2022-11-04T14:41:53;3.00;;;1.10;;
17345;SDS011;8790;53.590;10.002;2022-11-04T14:44:31;1.80;;;1.10;;
17345;SDS011;8790;53.590;10.002;2022-11-04T14:47:06;5.47;;;1.40;;
17345;SDS011;8790;53.590;10.002;2022-11-04T14:49:48;2.80;;;1.20;;
17345;SDS011;8790;53.590;10.002;2022-11-04T14:52:23;4.00;;;1.30;;
17345;SDS011;8790;53.590;10.002;2022-11-04T14:54:57;3.43;;;1.03;;
17345;SDS011;8790;53.590;10.002;2022-11-04T14:57:35;2.97;;;1.10;;
17345;SDS011;8790;53.590;10.002;2022-11-04T15:00:19;4.13;;;1.30;;
17345;SDS011;8790;53.590;10.002;2022-11-04T15:03:13;2.90;;;0.90;;
17345;SDS011;8790;53.590;10.002;2022-11-04T15:05:49;4.90;;;1.00;;
17345;SDS011;8790;53.590;10.002;2022-11-04T15:08:29;2.87;;;1.13;;
17345;SDS011;8790;53.590;10.002;2022-11-04T15:11:04;2.93;;;1.00;;
17345;SDS011;8790;53.590;10.002;2022-11-04T15:13:43;2.90;;;1.20;;
17345;SDS011;8790;53.590;10.002;2022-11-04T15:16:17;2.20;;;1.10;;
17345;SDS011;8790;53.590;10.002;2022-11-04T15:18:51;3.50;;;1.10;;
17345;SDS011;8790;53.590;10.002;2022-11-04T15:21:25;4.17;;;1.30;;
17345;SDS011;8790;53.590;10.002;2022-11-04T15:23:57;2.00;;;1.27;;
17345;SDS011;8790;53.590;10.002;2022-11-04T15:26:31;2.90;;;1.50;;
17345;SDS011;8790;53.590;10.002;2022-11-04T15:29:06;4.70;;;1.63;;
17345;SDS011;8790;53.590;10.002;2022-11-04T15:31:49;4.53;;;1.27;;
17345;SDS011;8790;53.590;10.002;2022-11-04T15:34:23;4.90;;;1.40;;
17345;SDS011;8790;53.590;10.002;2022-11-04T15:36:57;3.53;;;1.77;;
17345;SDS011;8790;53.590;10.002;2022-11-04T15:39:33;4.40;;;1.53;;
17345;SDS011;8790;53.590;10.002;2022-11-04T15:42:10;3.87;;;1.50;;
17345;SDS011;8790;53.590;10.002;2022-11-04T15:45:16;4.07;;;1.70;;
17345;SDS011;8790;53.590;10.002;2022-11-04T15:48:25;3.10;;;1.60;;
17345;SDS011;8790;53.590;10.002;2022-11-04T15:53:56;3.90;;;1.40;;
17345;SDS011;8790;53.590;10.002;2022-11-04T15:56:31;5.30;;;1.37;;
17345;SDS011;8790;53.590;10.002;2022-11-04T15:59:10;5.33;;;1.30;;
17345;SDS011;8790;53.590;10.002;2022-11-04T16:01:46;2.87;;;1.00;;
17345;SDS011;8790;53.590;10.002;2022-11-04T16:04:21;3.90;;;0.90;;
17345;SDS011;8790;53.590;10.002;2022-11-04T16:07:02;3.40;;;1.10;;